sensor_id;sensor_type;location;lat;lon;timestamp;pressure;altitude;pressure_sealevel;temperature;humidity
85166;BME280;75533;52.100;10.228;2024-03-08T00:00:04;100651.19;;;18.72;41.77
85166;BME280;75533;52.100;10.228;2024-03-08T00:02:40;100670.34;;;18.73;41.64
85166;BME280;75533;52.100;10.228;2024-03-08T00:05:07;100660.56;;;18.71;41.78
85166;BME280;75533;52.100;10.228;2024-03-08T00:07:36;100663.53;;;18.69;41.94
85166;BME280;75533;52.100;10.228;2024-03-08T00:10:06;100667.16;;;18.70;41.53
85166;BME280;75533;52.100;10.228;2024-03-08T00:12:36;100660.97;;;18.68;41.58
85166;BME280;75533;52.100;10.228;2024-03-08T00:15:02;100667.72;;;18.65;41.81
85166;BME280;75533;52.100;10.228;2024-03-08T00:17:27;100658.56;;;18.65;41.53
85166;BME280;75533;52.100;10.228;2024-03-08T00:19:52;100664.28;;;18.63;41.24
85166;BME280;75533;52.100;10.228;2024-03-08T00:22:18;100663.44;;;18.62;41.54
85166;BME280;75533;52.100;10.228;2024-03-08T00:24:43;100660.84;;;18.61;41.64
85166;BME280;75533;52.100;10.228;2024-03-08T00:27:09;100658.09;;;18.61;41.58
85166;BME280;75533;52.100;10.228;2024-03-08T00:29:35;100654.47;;;18.60;41.36
85166;BME280;75533;52.100;10.228;2024-03-08T00:32:00;100654.88;;;18.57;41.46
85166;BME280;75533;52.100;10.228;2024-03-08T00:34:26;100662.09;;;18.58;41.46
85166;BME280;75533;52.100;10.228;2024-03-08T00:36:51;100663.34;;;18.56;41.46
85166;BME280;75533;52.100;10.228;2024-03-08T00:39:18;100655.91;;;18.56;41.26
85166;BME280;75533;52.100;10.228;2024-03-08T00:41:45;100653.34;;;18.55;41.43
85166;BME280;75533;52.100;10.228;2024-03-08T00:44:10;100648.69;;;18.55;41.13
85166;BME280;75533;52.100;10.228;2024-03-08T00:46:35;100641.63;;;18.53;40.99
85166;BME280;75533;52.100;10.228;2024-03-08T00:49:01;100640.78;;;18.52;41.16
85166;BME280;75533;52.100;10.228;2024-03-08T00:51:26;100638.22;;;18.51;41.07
85166;BME280;75533;52.100;10.228;2024-03-08T00:53:51;100637.38;;;18.50;41.18
85166;BME280;75533;52.100;10.228;2024-03-08T00:56:17;100637.56;;;18.49;41.17
85166;BME280;75533;52.100;10.228;2024-03-08T00:58:42;100632.44;;;18.46;41.20
85166;BME280;75533;52.100;10.228;2024-03-08T01:01:08;100629.69;;;18.46;41.22
85166;BME280;75533;52.100;10.228;2024-03-08T01:03:35;100626.91;;;18.46;41.00
85166;BME280;75533;52.100;10.228;2024-03-08T01:06:00;100629.69;;;18.46;41.11
85166;BME280;75533;52.100;10.228;2024-03-08T01:08:27;100613.47;;;18.43;40.84
85166;BME280;75533;52.100;10.228;2024-03-08T01:10:53;100618.13;;;18.42;40.89
85166;BME280;75533;52.100;10.228;2024-03-08T01:13:18;100614.72;;;18.40;41.00
85166;BME280;75533;52.100;10.228;2024-03-08T01:15:44;100601.94;;;18.39;41.00
85166;BME280;75533;52.100;10.228;2024-03-08T01:18:10;100608.34;;;18.40;41.04
85166;BME280;75533;52.100;10.228;2024-03-08T01:20:35;100596.63;;;18.38;40.94
85166;BME280;75533;52.100;10.228;2024-03-08T01:23:01;100585.56;;;18.38;40.72
85166;BME280;75533;52.100;10.228;2024-03-08T01:25:26;100593.84;;;18.38;40.78
85166;BME280;75533;52.100;10.228;2024-03-08T01:27:52;100576.81;;;18.34;41.08
85166;BME280;75533;52.100;10.228;2024-03-08T01:30:19;100584.47;;;18.32;41.09
85166;BME280;75533;52.100;10.228;2024-03-08T01:32:44;100583.59;;;18.31;41.01
85166;BME280;75533;52.100;10.228;2024-03-08T01:35:10;100580.00;;;18.31;40.96
85166;BME280;75533;52.100;10.228;2024-03-08T01:37:35;100578.28;;;18.30;40.89
85166;BME280;75533;52.100;10.228;2024-03-08T01:40:01;100580.00;;;18.31;41.00
85166;BME280;75533;52.100;10.228;2024-03-08T01:42:28;100578.47;;;18.28;40.87
85166;BME280;75533;52.100;10.228;2024-03-08T01:44:53;100573.81;;;18.29;40.78
85166;BME280;75533;52.100;10.228;2024-03-08T01:47:19;100564.00;;;18.26;40.67
85166;BME280;75533;52.100;10.228;2024-03-08T01:49:50;100561.44;;;18.25;40.84
85166;BME280;75533;52.100;10.228;2024-03-08T01:52:17;100565.91;;;18.26;40.62
85166;BME280;75533;52.100;10.228;2024-03-08T01:54:45;100548.88;;;18.22;40.78
85166;BME280;75533;52.100;10.228;2024-03-08T01:57:11;100546.97;;;18.23;40.94
85166;BME280;75533;52.100;10.228;2024-03-08T01:59:37;100545.28;;;18.22;40.64
85166;BME280;75533;52.100;10.228;2024-03-08T02:02:04;100545.44;;;18.20;40.88
85166;BME280;75533;52.100;10.228;2024-03-08T02:04:31;100547.34;;;18.20;40.67
85166;BME280;75533;52.100;10.228;2024-03-08T02:06:56;100541.16;;;18.18;40.67
85166;BME280;75533;52.100;10.228;2024-03-08T02:09:23;100536.69;;;18.17;40.77
85166;BME280;75533;52.100;10.228;2024-03-08T02:11:50;100527.09;;;18.13;40.96
85166;BME280;75533;52.100;10.228;2024-03-08T02:14:17;100536.69;;;18.17;40.76
85166;BME280;75533;52.100;10.228;2024-03-08T02:16:44;100535.00;;;18.16;40.90
85166;BME280;75533;52.100;10.228;2024-03-08T02:19:09;100533.28;;;18.15;40.69
85166;BME280;75533;52.100;10.228;2024-03-08T02:21:35;100524.13;;;18.14;40.61
85166;BME280;75533;52.100;10.228;2024-03-08T02:24:00;100518.81;;;18.13;40.67
85166;BME280;75533;52.100;10.228;2024-03-08T02:26:26;100517.97;;;18.12;40.95
85166;BME280;75533;52.100;10.228;2024-03-08T02:28:52;100521.78;;;18.11;40.85
85166;BME280;75533;52.100;10.228;2024-03-08T02:31:17;100514.53;;;18.10;40.75
85166;BME280;75533;52.100;10.228;2024-03-08T02:33:43;100503.50;;;18.10;40.83
85166;BME280;75533;52.100;10.228;2024-03-08T02:36:08;100511.97;;;18.09;40.48
85166;BME280;75533;52.100;10.228;2024-03-08T02:38:33;100508.56;;;18.07;40.72
85166;BME280;75533;52.100;10.228;2024-03-08T02:40:59;100503.91;;;18.07;40.42
85166;BME280;75533;52.100;10.228;2024-03-08T02:43:24;100500.28;;;18.07;40.55
85166;BME280;75533;52.100;10.228;2024-03-08T02:45:50;100504.09;;;18.06;40.49
85166;BME280;75533;52.100;10.228;2024-03-08T02:48:16;100496.88;;;18.05;40.40
85166;BME280;75533;52.100;10.228;2024-03-08T02:50:44;100497.91;;;18.04;40.62
85166;BME280;75533;52.100;10.228;2024-03-08T02:53:10;100493.44;;;18.02;40.47
85166;BME280;75533;52.100;10.228;2024-03-08T02:55:37;100486.38;;;18.00;40.43
85166;BME280;75533;52.100;10.228;2024-03-08T02:58:03;100491.75;;;18.01;40.71
85166;BME280;75533;52.100;10.228;2024-03-08T03:00:28;100488.28;;;17.99;40.37
85166;BME280;75533;52.100;10.228;2024-03-08T03:02:56;100490.41;;;17.97;40.75
85166;BME280;75533;52.100;10.228;2024-03-08T03:05:22;100487.66;;;17.97;40.67
85166;BME280;75533;52.100;10.228;2024-03-08T03:07:48;100488.50;;;17.98;40.78
85166;BME280;75533;52.100;10.228;2024-03-08T03:10:14;100485.94;;;17.96;40.54
85166;BME280;75533;52.100;10.228;2024-03-08T03:12:42;100487.00;;;17.95;40.52
85166;BME280;75533;52.100;10.228;2024-03-08T03:15:08;100481.00;;;17.92;40.40
85166;BME280;75533;52.100;10.228;2024-03-08T03:17:33;100480.81;;;17.93;40.34
85166;BME280;75533;52.100;10.228;2024-03-08T03:19:59;100481.88;;;17.92;40.32
85166;BME280;75533;52.100;10.228;2024-03-08T03:22:27;100486.53;;;17.92;40.43
85166;BME280;75533;52.100;10.228;2024-03-08T03:24:55;100482.06;;;17.91;40.41
85166;BME280;75533;52.100;10.228;2024-03-08T03:27:23;100477.59;;;17.90;40.54
85166;BME280;75533;52.100;10.228;2024-03-08T03:29:49;100475.69;;;17.90;40.53
85166;BME280;75533;52.100;10.228;2024-03-08T03:32:17;100474.19;;;17.88;40.27
85166;BME280;75533;52.100;10.228;2024-03-08T03:34:43;100459.94;;;17.84;40.53
85166;BME280;75533;52.100;10.228;2024-03-08T03:37:09;100462.28;;;17.87;40.74
85166;BME280;75533;52.100;10.228;2024-03-08T03:39:38;100476.09;;;17.87;40.43
85166;BME280;75533;52.100;10.228;2024-03-08T03:42:16;100467.81;;;17.87;40.41
85166;BME280;75533;52.100;10.228;2024-03-08T03:44:45;100470.56;;;17.87;40.46
85166;BME280;75533;52.100;10.228;2024-03-08T03:47:10;100479.06;;;17.86;40.46
85166;BME280;75533;52.100;10.228;2024-03-08T03:49:36;100470.78;;;17.86;40.52
85166;BME280;75533;52.100;10.228;2024-03-08T03:52:01;100466.69;;;17.82;40.39
85166;BME280;75533;52.100;10.228;2024-03-08T03:54:27;100480.72;;;17.80;40.44
85166;BME280;75533;52.100;10.228;2024-03-08T03:56:55;100458.63;;;17.80;40.47
85166;BME280;75533;52.100;10.228;2024-03-08T03:59:21;100463.09;;;17.81;40.35
85166;BME280;75533;52.100;10.228;2024-03-08T04:01:46;100455.84;;;17.80;40.59
85166;BME280;75533;52.100;10.228;2024-03-08T04:04:11;100455.84;;;17.80;40.29
85166;BME280;75533;52.100;10.228;2024-03-08T04:06:37;100460.69;;;17.78;40.33
85166;BME280;75533;52.100;10.228;2024-03-08T04:09:03;100462.59;;;17.78;40.66
85166;BME280;75533;52.100;10.228;2024-03-08T04:11:29;100459.00;;;17.77;40.37
85166;BME280;75533;52.100;10.228;2024-03-08T04:13:55;100459.00;;;17.77;40.33
85166;BME280;75533;52.100;10.228;2024-03-08T04:16:20;100461.09;;;17.75;40.50
85166;BME280;75533;52.100;10.228;2024-03-08T04:18:46;100462.81;;;17.76;40.45
85166;BME280;75533;52.100;10.228;2024-03-08T04:21:12;100455.56;;;17.75;40.38
85166;BME280;75533;52.100;10.228;2024-03-08T04:23:38;100459.38;;;17.74;40.41
85166;BME280;75533;52.100;10.228;2024-03-08T04:26:03;100463.22;;;17.73;40.41
85166;BME280;75533;52.100;10.228;2024-03-08T04:28:31;100458.75;;;17.72;40.50
85166;BME280;75533;52.100;10.228;2024-03-08T04:30:57;100459.13;;;17.69;40.24
85166;BME280;75533;52.100;10.228;2024-03-08T04:33:22;100449.16;;;17.68;40.73
85166;BME280;75533;52.100;10.228;2024-03-08T04:35:48;100457.44;;;17.68;40.44
85166;BME280;75533;52.100;10.228;2024-03-08T04:38:14;100456.56;;;17.67;40.35
85166;BME280;75533;52.100;10.228;2024-03-08T04:40:40;100450.38;;;17.65;40.42
85166;BME280;75533;52.100;10.228;2024-03-08T04:43:05;100445.69;;;17.66;40.76
85166;BME280;75533;52.100;10.228;2024-03-08T04:45:31;100442.94;;;17.66;40.55
85166;BME280;75533;52.100;10.228;2024-03-08T04:47:56;100438.47;;;17.65;40.24
85166;BME280;75533;52.100;10.228;2024-03-08T04:50:22;100446.09;;;17.63;40.44
85166;BME280;75533;52.100;10.228;2024-03-08T04:52:47;100435.06;;;17.63;40.14
85166;BME280;75533;52.100;10.228;2024-03-08T04:55:12;100449.91;;;17.62;40.49
85166;BME280;75533;52.100;10.228;2024-03-08T04:57:38;100443.34;;;17.63;40.38
85166;BME280;75533;52.100;10.228;2024-03-08T05:00:03;100440.59;;;17.63;40.43
85166;BME280;75533;52.100;10.228;2024-03-08T05:02:35;100441.84;;;17.60;40.32
85166;BME280;75533;52.100;10.228;2024-03-08T05:05:01;100446.91;;;17.57;40.30
85166;BME280;75533;52.100;10.228;2024-03-08T05:07:27;100447.75;;;17.57;40.36
85166;BME280;75533;52.100;10.228;2024-03-08T05:09:52;100449.84;;;17.55;40.40
85166;BME280;75533;52.100;10.228;2024-03-08T05:12:18;100443.47;;;17.55;40.25
85166;BME280;75533;52.100;10.228;2024-03-08T05:14:47;100449.84;;;17.55;40.41
85166;BME280;75533;52.100;10.228;2024-03-08T05:17:15;100436.88;;;17.56;40.48
85166;BME280;75533;52.100;10.228;2024-03-08T05:19:40;100440.91;;;17.53;40.40
85166;BME280;75533;52.100;10.228;2024-03-08T05:22:05;100435.38;;;17.53;40.20
85166;BME280;75533;52.100;10.228;2024-03-08T05:24:31;100440.03;;;17.53;40.16
85166;BME280;75533;52.100;10.228;2024-03-08T05:26:56;100438.13;;;17.53;40.53
85166;BME280;75533;52.100;10.228;2024-03-08T05:29:21;100431.97;;;17.51;40.64
85166;BME280;75533;52.100;10.228;2024-03-08T05:31:49;100435.38;;;17.53;40.80
85166;BME280;75533;52.100;10.228;2024-03-08T05:34:16;100436.03;;;17.55;40.73
85166;BME280;75533;52.100;10.228;2024-03-08T05:36:41;100425.66;;;17.57;40.89
85166;BME280;75533;52.100;10.228;2024-03-08T05:39:14;100426.56;;;17.64;40.78
85166;BME280;75533;52.100;10.228;2024-03-08T05:41:41;100425.31;;;17.67;40.93
85166;BME280;75533;52.100;10.228;2024-03-08T05:44:06;100430.84;;;17.67;40.87
85166;BME280;75533;52.100;10.228;2024-03-08T05:46:32;100431.72;;;17.67;40.52
85166;BME280;75533;52.100;10.228;2024-03-08T05:48:58;100423.16;;;17.62;39.05
85166;BME280;75533;52.100;10.228;2024-03-08T05:51:30;100423.63;;;17.66;40.26
85166;BME280;75533;52.100;10.228;2024-03-08T05:53:55;100426.00;;;17.69;40.60
85166;BME280;75533;52.100;10.228;2024-03-08T05:56:22;100425.81;;;17.70;40.39
85166;BME280;75533;52.100;10.228;2024-03-08T05:58:48;100429.00;;;17.74;40.25
85166;BME280;75533;52.100;10.228;2024-03-08T06:01:15;100438.16;;;17.75;40.47
85166;BME280;75533;52.100;10.228;2024-03-08T06:03:40;100427.97;;;17.75;40.21
85166;BME280;75533;52.100;10.228;2024-03-08T06:06:12;100441.38;;;17.78;40.27
85166;BME280;75533;52.100;10.228;2024-03-08T06:08:37;100444.59;;;17.82;40.35
85166;BME280;75533;52.100;10.228;2024-03-08T06:11:02;100444.00;;;17.86;40.05
85166;BME280;75533;52.100;10.228;2024-03-08T06:13:28;100448.47;;;17.87;40.19
85166;BME280;75533;52.100;10.228;2024-03-08T06:15:56;100450.84;;;17.90;40.27
85166;BME280;75533;52.100;10.228;2024-03-08T06:18:21;100443.84;;;17.94;40.18
85166;BME280;75533;52.100;10.228;2024-03-08T06:20:47;100446.19;;;17.97;40.21
85166;BME280;75533;52.100;10.228;2024-03-08T06:23:12;100439.63;;;17.98;39.92
85166;BME280;75533;52.100;10.228;2024-03-08T06:25:37;100442.66;;;18.04;40.03
85166;BME280;75533;52.100;10.228;2024-03-08T06:28:03;100444.38;;;18.05;40.29
85166;BME280;75533;52.100;10.228;2024-03-08T06:30:29;100435.69;;;18.08;40.07
85166;BME280;75533;52.100;10.228;2024-03-08T06:32:54;100423.34;;;18.10;40.32
85166;BME280;75533;52.100;10.228;2024-03-08T06:35:19;100424.66;;;18.14;40.20
85166;BME280;75533;52.100;10.228;2024-03-08T06:37:45;100422.53;;;18.16;39.96
85166;BME280;75533;52.100;10.228;2024-03-08T06:40:11;100426.81;;;18.19;40.24
85166;BME280;75533;52.100;10.228;2024-03-08T06:42:39;100421.94;;;18.21;39.97
85166;BME280;75533;52.100;10.228;2024-03-08T06:45:05;100419.44;;;18.26;40.11
85166;BME280;75533;52.100;10.228;2024-03-08T06:47:31;100425.63;;;18.28;39.84
85166;BME280;75533;52.100;10.228;2024-03-08T06:49:57;100425.84;;;18.33;39.92
85166;BME280;75533;52.100;10.228;2024-03-08T06:52:22;100423.75;;;18.42;39.73
85166;BME280;75533;52.100;10.228;2024-03-08T06:54:48;100429.75;;;18.45;39.37
85166;BME280;75533;52.100;10.228;2024-03-08T06:57:14;100426.59;;;18.48;39.82
85166;BME280;75533;52.100;10.228;2024-03-08T06:59:41;100422.34;;;18.52;39.86
85166;BME280;75533;52.100;10.228;2024-03-08T07:02:07;100429.22;;;18.63;39.57
85166;BME280;75533;52.100;10.228;2024-03-08T07:04:34;100422.91;;;18.69;39.52
85166;BME280;75533;52.100;10.228;2024-03-08T07:07:03;100429.50;;;18.75;39.27
85166;BME280;75533;52.100;10.228;2024-03-08T07:09:29;100426.09;;;18.73;39.42
85166;BME280;75533;52.100;10.228;2024-03-08T07:11:54;100420.56;;;18.73;39.37
85166;BME280;75533;52.100;10.228;2024-03-08T07:14:23;100420.13;;;18.69;39.13
85166;BME280;75533;52.100;10.228;2024-03-08T07:16:49;100414.63;;;18.76;39.27
85166;BME280;75533;52.100;10.228;2024-03-08T07:19:15;100420.59;;;18.79;39.30
85166;BME280;75533;52.100;10.228;2024-03-08T07:21:42;100433.78;;;18.84;39.58
85166;BME280;75533;52.100;10.228;2024-03-08T07:24:07;100425.13;;;18.87;39.56
85166;BME280;75533;52.100;10.228;2024-03-08T07:26:42;100426.19;;;18.92;39.55
85166;BME280;75533;52.100;10.228;2024-03-08T07:29:07;100421.09;;;18.96;39.32
85166;BME280;75533;52.100;10.228;2024-03-08T07:31:33;100421.72;;;18.98;39.43
85166;BME280;75533;52.100;10.228;2024-03-08T07:34:21;100411.94;;;19.02;39.47
85166;BME280;75533;52.100;10.228;2024-03-08T07:36:46;100411.53;;;19.05;39.33
85166;BME280;75533;52.100;10.228;2024-03-08T07:39:11;100411.31;;;19.07;39.51
85166;BME280;75533;52.100;10.228;2024-03-08T07:41:38;100409.00;;;19.10;39.49
85166;BME280;75533;52.100;10.228;2024-03-08T07:44:06;100411.16;;;19.15;39.42
85166;BME280;75533;52.100;10.228;2024-03-08T07:46:31;100406.69;;;19.20;39.37
85166;BME280;75533;52.100;10.228;2024-03-08T07:48:56;100401.16;;;19.20;39.45
85166;BME280;75533;52.100;10.228;2024-03-08T07:51:22;100400.28;;;19.27;39.29
85166;BME280;75533;52.100;10.228;2024-03-08T07:53:47;100391.13;;;19.26;39.35
85166;BME280;75533;52.100;10.228;2024-03-08T07:56:12;100402.25;;;19.33;39.44
85166;BME280;75533;52.100;10.228;2024-03-08T07:58:39;100399.47;;;19.33;39.42
85166;BME280;75533;52.100;10.228;2024-03-08T08:01:06;100394.16;;;19.38;39.39
85166;BME280;75533;52.100;10.228;2024-03-08T08:03:31;100384.56;;;19.40;39.56
85166;BME280;75533;52.100;10.228;2024-03-08T08:05:57;100395.44;;;19.42;39.47
85166;BME280;75533;52.100;10.228;2024-03-08T08:08:23;100400.75;;;19.50;39.39
85166;BME280;75533;52.100;10.228;2024-03-08T08:10:48;100390.81;;;19.56;39.29
85166;BME280;75533;52.100;10.228;2024-03-08T08:13:14;100398.69;;;19.59;39.34
85166;BME280;75533;52.100;10.228;2024-03-08T08:15:40;100390.78;;;19.62;39.35
85166;BME280;75533;52.100;10.228;2024-03-08T08:18:06;100388.66;;;19.64;39.38
85166;BME280;75533;52.100;10.228;2024-03-08T08:20:34;100377.16;;;19.67;39.38
85166;BME280;75533;52.100;10.228;2024-03-08T08:23:00;100388.88;;;19.69;39.46
85166;BME280;75533;52.100;10.228;2024-03-08T08:25:25;100378.44;;;19.71;39.50
85166;BME280;75533;52.100;10.228;2024-03-08T08:27:50;100378.22;;;19.73;39.47
85166;BME280;75533;52.100;10.228;2024-03-08T08:30:16;100375.25;;;19.74;39.48
85166;BME280;75533;52.100;10.228;2024-03-08T08:32:41;100373.13;;;19.76;39.44
85166;BME280;75533;52.100;10.228;2024-03-08T08:35:09;100368.00;;;19.80;39.48
85166;BME280;75533;52.100;10.228;2024-03-08T08:37:35;100384.81;;;19.85;39.45
85166;BME280;75533;52.100;10.228;2024-03-08T08:40:03;100371.59;;;19.87;39.54
85166;BME280;75533;52.100;10.228;2024-03-08T08:42:38;100369.69;;;19.88;39.57
85166;BME280;75533;52.100;10.228;2024-03-08T08:45:07;100367.56;;;19.90;39.50
85166;BME280;75533;52.100;10.228;2024-03-08T08:47:36;100361.56;;;19.93;39.48
85166;BME280;75533;52.100;10.228;2024-03-08T08:50:02;100360.09;;;19.97;39.73
85166;BME280;75533;52.100;10.228;2024-03-08T08:52:29;100357.97;;;19.99;39.53
85166;BME280;75533;52.100;10.228;2024-03-08T08:54:55;100354.97;;;20.00;39.58
85166;BME280;75533;52.100;10.228;2024-03-08T08:57:21;100358.16;;;20.04;39.41
85166;BME280;75533;52.100;10.228;2024-03-08T08:59:47;100346.00;;;20.05;39.74
85166;BME280;75533;52.100;10.228;2024-03-08T09:02:12;100354.31;;;20.05;39.82
85166;BME280;75533;52.100;10.228;2024-03-08T09:04:38;100346.63;;;20.07;39.29
85166;BME280;75533;52.100;10.228;2024-03-08T09:07:03;100343.66;;;20.08;39.68
85166;BME280;75533;52.100;10.228;2024-03-08T09:09:31;100342.56;;;20.09;39.78
85166;BME280;75533;52.100;10.228;2024-03-08T09:11:56;100343.22;;;20.11;39.74
85166;BME280;75533;52.100;10.228;2024-03-08T09:14:22;100348.31;;;20.14;39.63
85166;BME280;75533;52.100;10.228;2024-03-08T09:16:47;100331.69;;;20.14;39.94
85166;BME280;75533;52.100;10.228;2024-03-08T09:19:13;100327.44;;;20.19;39.98
85166;BME280;75533;52.100;10.228;2024-03-08T09:21:38;100323.38;;;20.21;39.96
85166;BME280;75533;52.100;10.228;2024-03-08T09:24:05;100321.22;;;20.23;39.94
85166;BME280;75533;52.100;10.228;2024-03-08T09:26:31;100319.09;;;20.25;39.88
85166;BME280;75533;52.100;10.228;2024-03-08T09:28:58;100315.03;;;20.28;39.86
85166;BME280;75533;52.100;10.228;2024-03-08T09:31:23;100306.47;;;20.29;39.74
85166;BME280;75533;52.100;10.228;2024-03-08T09:33:49;100310.50;;;20.33;40.02
85166;BME280;75533;52.100;10.228;2024-03-08T09:36:15;100304.53;;;20.36;39.70
85166;BME280;75533;52.100;10.228;2024-03-08T09:38:41;100297.91;;;20.37;39.99
85166;BME280;75533;52.100;10.228;2024-03-08T09:41:06;100296.84;;;20.38;39.73
85166;BME280;75533;52.100;10.228;2024-03-08T09:43:32;100294.53;;;20.42;39.87
85166;BME280;75533;52.100;10.228;2024-03-08T09:45:58;100291.53;;;20.43;39.73
85166;BME280;75533;52.100;10.228;2024-03-08T09:48:23;100280.22;;;20.45;40.07
85166;BME280;75533;52.100;10.228;2024-03-08T09:50:51;100277.84;;;20.49;39.86
85166;BME280;75533;52.100;10.228;2024-03-08T09:53:16;100277.84;;;20.49;39.81
85166;BME280;75533;52.100;10.228;2024-03-08T09:55:42;100258.88;;;20.46;39.93
85166;BME280;75533;52.100;10.228;2024-03-08T09:58:11;100266.31;;;20.52;39.97
85166;BME280;75533;52.100;10.228;2024-03-08T10:00:57;100262.00;;;20.56;40.00
85166;BME280;75533;52.100;10.228;2024-03-08T10:03:23;100252.63;;;20.57;39.80
85166;BME280;75533;52.100;10.228;2024-03-08T10:05:51;100253.25;;;20.59;39.71
85166;BME280;75533;52.100;10.228;2024-03-08T10:08:17;100239.38;;;20.59;39.78
85166;BME280;75533;52.100;10.228;2024-03-08T10:10:42;100246.19;;;20.63;39.72
85166;BME280;75533;52.100;10.228;2024-03-08T10:13:09;100240.19;;;20.66;39.87
85166;BME280;75533;52.100;10.228;2024-03-08T10:15:36;100242.97;;;20.66;40.08
85166;BME280;75533;52.100;10.228;2024-03-08T10:18:01;100231.66;;;20.67;39.83
85166;BME280;75533;52.100;10.228;2024-03-08T10:20:31;100233.13;;;20.70;39.70
85166;BME280;75533;52.100;10.228;2024-03-08T10:23:09;100224.34;;;20.73;39.79
85166;BME280;75533;52.100;10.228;2024-03-08T10:25:35;100226.06;;;20.74;39.92
85166;BME280;75533;52.100;10.228;2024-03-08T10:28:03;100233.28;;;20.75;39.83
85166;BME280;75533;52.100;10.228;2024-03-08T10:30:32;100225.81;;;20.75;39.93
85166;BME280;75533;52.100;10.228;2024-03-08T10:32:57;100227.91;;;20.80;39.99
85166;BME280;75533;52.100;10.228;2024-03-08T10:35:23;100214.91;;;20.81;40.02
85166;BME280;75533;52.100;10.228;2024-03-08T10:37:50;100221.28;;;20.81;39.94
85166;BME280;75533;52.100;10.228;2024-03-08T10:40:24;100214.47;;;20.84;39.92
85166;BME280;75533;52.100;10.228;2024-03-08T10:42:54;100207.63;;;20.86;39.94
85166;BME280;75533;52.100;10.228;2024-03-08T10:45:38;100203.75;;;20.87;40.00
85166;BME280;75533;52.100;10.228;2024-03-08T10:48:30;100198.38;;;20.92;39.86
85166;BME280;75533;52.100;10.228;2024-03-08T10:51:02;100201.16;;;20.92;39.97
85166;BME280;75533;52.100;10.228;2024-03-08T10:53:29;100191.53;;;20.95;39.94
85166;BME280;75533;52.100;10.228;2024-03-08T10:55:56;100191.75;;;20.93;40.05
85166;BME280;75533;52.100;10.228;2024-03-08T10:58:23;100189.59;;;20.95;39.72
85166;BME280;75533;52.100;10.228;2024-03-08T11:00:52;100189.38;;;20.97;40.04
85166;BME280;75533;52.100;10.228;2024-03-08T11:09:03;100175.44;;;21.03;39.87
85166;BME280;75533;52.100;10.228;2024-03-08T11:11:38;100180.56;;;21.07;39.87
85166;BME280;75533;52.100;10.228;2024-03-08T11:14:43;100168.13;;;21.09;39.67
85166;BME280;75533;52.100;10.228;2024-03-08T11:17:08;100170.69;;;21.11;40.01
85166;BME280;75533;52.100;10.228;2024-03-08T11:19:34;100165.53;;;21.14;39.69
85166;BME280;75533;52.100;10.228;2024-03-08T11:22:03;100157.81;;;21.16;39.91
85166;BME280;75533;52.100;10.228;2024-03-08T11:24:37;100149.25;;;21.18;39.64
85166;BME280;75533;52.100;10.228;2024-03-08T11:27:05;100144.94;;;21.22;39.75
85166;BME280;75533;52.100;10.228;2024-03-08T11:29:32;100141.06;;;21.23;39.77
85166;BME280;75533;52.100;10.228;2024-03-08T11:32:11;100137.25;;;21.24;39.88
85166;BME280;75533;52.100;10.228;2024-03-08T11:34:38;100116.72;;;21.25;39.56
85166;BME280;75533;52.100;10.228;2024-03-08T11:37:05;100122.69;;;21.28;39.48
85166;BME280;75533;52.100;10.228;2024-03-08T11:39:35;100131.88;;;21.29;39.82
85166;BME280;75533;52.100;10.228;2024-03-08T11:42:02;100116.69;;;21.31;39.86
85166;BME280;75533;52.100;10.228;2024-03-08T11:44:27;100124.31;;;21.36;39.73
85166;BME280;75533;52.100;10.228;2024-03-08T11:46:53;100121.06;;;21.39;39.71
85166;BME280;75533;52.100;10.228;2024-03-08T11:49:19;100131.72;;;21.42;39.76
85166;BME280;75533;52.100;10.228;2024-03-08T11:51:44;100113.75;;;21.45;39.54
85166;BME280;75533;52.100;10.228;2024-03-08T11:54:11;100113.91;;;21.50;39.52
85166;BME280;75533;52.100;10.228;2024-03-08T11:56:40;100113.97;;;21.61;39.32
85166;BME280;75533;52.100;10.228;2024-03-08T11:59:11;100105.41;;;21.63;39.40
85166;BME280;75533;52.100;10.228;2024-03-08T12:01:38;100099.59;;;21.64;39.27
85166;BME280;75533;52.100;10.228;2024-03-08T12:04:04;100101.31;;;21.65;39.08
85166;BME280;75533;52.100;10.228;2024-03-08T12:06:40;100089.97;;;21.67;39.51
85166;BME280;75533;52.100;10.228;2024-03-08T12:09:10;100067.50;;;21.69;39.43
85166;BME280;75533;52.100;10.228;2024-03-08T12:11:36;100085.41;;;21.73;39.45
85166;BME280;75533;52.100;10.228;2024-03-08T12:14:03;100077.69;;;21.75;38.98
85166;BME280;75533;52.100;10.228;2024-03-08T12:16:28;100055.47;;;21.75;39.08
85166;BME280;75533;52.100;10.228;2024-03-08T12:18:54;100068.28;;;21.76;39.45
85166;BME280;75533;52.100;10.228;2024-03-08T12:21:20;100056.69;;;21.79;39.26
85166;BME280;75533;52.100;10.228;2024-03-08T12:23:47;100065.16;;;21.84;39.42
85166;BME280;75533;52.100;10.228;2024-03-08T12:26:23;100065.75;;;21.86;39.15
85166;BME280;75533;52.100;10.228;2024-03-08T12:28:49;100054.16;;;21.89;38.85
85166;BME280;75533;52.100;10.228;2024-03-08T12:31:16;100056.72;;;21.90;38.94
85166;BME280;75533;52.100;10.228;2024-03-08T12:33:52;100052.66;;;21.93;39.29
85166;BME280;75533;52.100;10.228;2024-03-08T12:36:18;100058.56;;;21.96;39.03
85166;BME280;75533;52.100;10.228;2024-03-08T12:38:48;100043.59;;;21.98;39.20
85166;BME280;75533;52.100;10.228;2024-03-08T12:41:14;100046.13;;;21.99;39.40
85166;BME280;75533;52.100;10.228;2024-03-08T12:43:40;100050.13;;;22.03;38.85